createdAt,value
2022-08-17T00:00:13.615Z,96134.78
2022-08-17T00:03:02.782Z,96130.81
2022-08-17T00:05:32.711Z,96135.34
2022-08-17T00:08:01.557Z,96137.72
2022-08-17T00:10:29.202Z,96134.28
2022-08-17T00:12:59.805Z,96131.88
2022-08-17T00:15:27.770Z,96134.53
2022-08-17T00:17:55.296Z,96138.53
2022-08-17T00:20:23.454Z,96130.28
2022-08-17T00:23:13.453Z,96131.66
2022-08-17T00:25:41.529Z,96127.16
2022-08-17T00:28:09.442Z,96130.09
2022-08-17T00:30:50.880Z,96129.50
2022-08-17T00:33:26.126Z,96134.56
2022-08-17T00:35:54.786Z,96127.66
2022-08-17T00:38:24.399Z,96117.56
2022-08-17T00:40:55.978Z,96126.88
2022-08-17T00:43:32.729Z,96120.22
2022-08-17T00:46:02.317Z,96120.75
2022-08-17T00:48:30.904Z,96118.09
2022-08-17T00:51:04.685Z,96120.22
2022-08-17T00:53:36.497Z,96118.09
2022-08-17T00:56:09.349Z,96119.69
2022-08-17T00:58:38.299Z,96112.50
2022-08-17T01:01:09.011Z,96116.50
2022-08-17T01:03:38.169Z,96103.75
2022-08-17T01:06:09.050Z,96110.91
2022-08-17T01:08:40.943Z,96111.97
2022-08-17T01:11:09.030Z,96105.88
2022-08-17T01:13:41.712Z,96120.19
2022-08-17T01:16:15.870Z,96111.19
2022-08-17T01:18:44.767Z,96108.53
2022-08-17T01:21:19.468Z,96105.88
2022-08-17T01:23:48.330Z,96108.78
2022-08-17T01:26:16.432Z,96104.53
2022-08-17T01:28:54.066Z,96107.47
2022-08-17T01:31:24.944Z,96106.66
2022-08-17T01:33:52.528Z,96105.06
2022-08-17T01:36:20.544Z,96098.97
2022-08-17T01:38:49.482Z,96094.72
2022-08-17T01:41:17.699Z,96106.41
2022-08-17T01:43:48.798Z,96105.88
2022-08-17T01:46:20.069Z,96102.13
2022-08-17T01:48:48.402Z,96101.09
2022-08-17T01:51:16.636Z,96097.91
2022-08-17T01:53:48.337Z,96088.91
2022-08-17T01:56:21.094Z,96090.47
2022-08-17T01:58:48.652Z,96093.13
2022-08-17T02:01:17.789Z,96096.31
2022-08-17T02:03:59.149Z,96099.75
2022-08-17T02:06:30.340Z,96093.13
2022-08-17T02:09:02.894Z,96090.47
2022-08-17T02:11:34.240Z,96092.88
2022-08-17T02:14:04.059Z,96085.16
2022-08-17T02:16:36.781Z,96080.66
2022-08-17T02:19:08.188Z,96089.16
2022-08-17T02:21:36.195Z,96084.66
2022-08-17T02:24:05.838Z,96085.16
2022-08-17T02:26:34.802Z,96088.63
2022-08-17T02:29:04.001Z,96077.47
2022-08-17T02:31:31.980Z,96082.00
2022-08-17T02:34:04.543Z,96091.00
2022-08-17T02:36:33.578Z,96088.34
2022-08-17T02:39:01.634Z,96085.16
2022-08-17T02:41:29.368Z,96082.75
2022-08-17T02:43:58.580Z,96084.09
2022-08-17T02:46:26.496Z,96086.75
2022-08-17T02:48:54.085Z,96082.22
2022-08-17T02:51:21.590Z,96082.50
2022-08-17T02:53:49.102Z,96073.47
2022-08-17T02:56:16.864Z,96072.41
2022-08-17T02:58:44.387Z,96070.28
2022-08-17T03:01:13.585Z,96071.84
2022-08-17T03:03:41.649Z,96077.16
2022-08-17T03:06:09.983Z,96080.34
2022-08-17T03:08:38.153Z,96080.34
2022-08-17T03:11:05.959Z,96086.72
2022-08-17T03:13:34.066Z,96077.94
2022-08-17T03:16:01.573Z,96080.34
2022-08-17T03:18:30.408Z,96092.53
2022-08-17T03:21:00.952Z,96100.03
2022-08-17T03:23:30.348Z,96092.59
2022-08-17T03:25:58.442Z,96085.69
2022-08-17T03:28:28.141Z,96094.44
2022-08-17T03:30:55.754Z,96100.03
2022-08-17T03:33:23.691Z,96102.44
2022-08-17T03:35:52.736Z,96103.75
2022-08-17T03:38:20.436Z,96098.97
2022-08-17T03:40:58.921Z,96106.41
2022-08-17T03:43:29.466Z,96104.00
2022-08-17T03:46:34.778Z,96102.41
2022-08-17T03:49:20.012Z,96105.31
2022-08-17T03:52:18.129Z,96100.56
2022-08-17T03:55:04.329Z,96107.44
2022-08-17T03:57:32.249Z,96100.25
2022-08-17T03:59:59.826Z,96098.63
2022-08-17T04:02:30.119Z,96100.50
2022-08-17T04:04:58.272Z,96099.72
2022-08-17T04:07:30.008Z,96101.81
2022-08-17T04:09:59.325Z,96099.41
2022-08-17T04:12:30.701Z,96101.00
2022-08-17T04:14:58.577Z,96103.13
2022-08-17T04:17:28.203Z,96110.53
2022-08-17T04:19:56.669Z,96113.97
2022-08-17T04:22:30.930Z,96123.50
2022-08-17T04:25:03.869Z,96124.28
2022-08-17T04:27:31.736Z,96110.00
2022-08-17T04:29:59.496Z,96110.00
2022-08-17T04:33:04.429Z,96107.34
2022-08-17T04:35:19.196Z,96112.91
2022-08-17T04:37:47.354Z,96121.63
2022-08-17T04:40:34.549Z,96125.13
2022-08-17T04:43:03.654Z,96122.72
2022-08-17T04:45:32.395Z,96121.09
2022-08-17T04:48:00.593Z,96123.25
2022-08-17T04:50:28.195Z,96122.41
2022-08-17T04:52:55.972Z,96128.00
2022-08-17T04:55:24.962Z,96126.94
2022-08-17T04:57:52.472Z,96133.31
2022-08-17T05:00:20.278Z,96138.06
2022-08-17T05:02:50.475Z,96135.41
2022-08-17T05:05:20.816Z,96140.97
2022-08-17T05:07:48.624Z,96133.28
2022-08-17T05:10:16.330Z,96134.34
2022-08-17T05:12:45.340Z,96136.44
2022-08-17T05:15:16.014Z,96137.50
2022-08-17T05:17:43.636Z,96130.59
2022-08-17T05:20:12.054Z,96134.31
2022-08-17T05:22:50.127Z,96124.22
2022-08-17T05:25:20.653Z,96132.66
2022-08-17T05:27:55.351Z,96130.00
2022-08-17T05:30:24.395Z,96134.22
2022-08-17T05:32:54.066Z,96137.13
2022-08-17T05:35:22.318Z,96134.22
2022-08-17T05:37:50.713Z,96140.06
2022-08-17T05:40:19.885Z,96145.66
2022-08-17T05:42:47.863Z,96146.75
2022-08-17T05:45:55.319Z,96145.16
2022-08-17T05:48:08.239Z,96150.72
2022-08-17T05:50:45.257Z,96147.56
2022-08-17T05:53:20.337Z,96147.59
2022-08-17T05:55:58.126Z,96158.75
2022-08-17T05:58:41.936Z,96161.66
2022-08-17T06:01:25.885Z,96170.97
2022-08-17T06:04:01.594Z,96176.53
2022-08-17T06:06:39.764Z,96185.81
2022-08-17T06:09:24.777Z,96183.47
2022-08-17T06:11:58.657Z,96179.00
2022-08-17T06:14:36.210Z,96191.72
2022-08-17T06:17:09.127Z,96188.59
2022-08-17T06:19:41.672Z,96199.78
2022-08-17T06:22:10.837Z,96196.09
2022-08-17T06:24:43.192Z,96205.41
2022-08-17T06:27:17.418Z,96207.53
2022-08-17T06:29:53.925Z,96204.38
2022-08-17T06:32:22.911Z,96191.13
2022-08-17T06:34:50.590Z,96194.56
2022-08-17T06:37:48.748Z,96204.94
2022-08-17T06:40:30.690Z,96212.38
2022-08-17T06:43:15.350Z,96223.28
2022-08-17T06:45:49.046Z,96222.78
2022-08-17T06:48:25.432Z,96231.03
2022-08-17T06:50:59.859Z,96235.25
2022-08-17T06:53:32.402Z,96231.03
2022-08-17T06:56:05.905Z,96240.84
2022-08-17T06:58:35.709Z,96247.22
2022-08-17T07:01:10.624Z,96245.34
2022-08-17T07:03:49.801Z,96252.53
2022-08-17T07:06:20.589Z,96241.88
2022-08-17T07:08:56.172Z,96246.41
2022-08-17T07:11:28.359Z,96247.97
2022-08-17T07:14:00.990Z,96252.47
2022-08-17T07:16:33.359Z,96250.84
2022-08-17T07:19:02.274Z,96238.31
2022-08-17T07:21:41.551Z,96229.47
2022-08-17T07:24:30.280Z,96227.81
2022-08-17T07:27:11.140Z,96232.28
2022-08-17T07:29:42.374Z,96225.84
2022-08-17T07:32:11.277Z,96217.50
2022-08-17T07:35:13.058Z,96217.94
2022-08-17T07:37:45.494Z,96210.88
2022-08-17T07:40:33.391Z,96212.91
2022-08-17T07:43:22.417Z,96208.56
2022-08-17T07:46:21.170Z,96202.31
2022-08-17T07:48:51.714Z,96207.00
2022-08-17T07:51:25.220Z,96219.44
2022-08-17T07:53:54.473Z,96229.72
2022-08-17T07:56:41.145Z,96232.00
2022-08-17T07:59:12.123Z,96225.78
2022-08-17T08:01:42.045Z,96223.50
2022-08-17T08:04:49.915Z,96227.13
2022-08-17T08:07:31.966Z,96234.72
2022-08-17T08:10:10.623Z,96222.31
2022-08-17T08:12:41.694Z,96226.72
2022-08-17T08:15:17.708Z,96231.94
2022-08-17T08:17:54.321Z,96229.44
2022-08-17T08:20:37.750Z,96237.59
2022-08-17T08:23:29.499Z,96218.44
2022-08-17T08:26:13.150Z,96226.81
2022-08-17T08:28:52.119Z,96214.28
2022-08-17T08:31:31.472Z,96218.88
2022-08-17T08:34:59.057Z,96222.69
2022-08-17T08:37:17.799Z,96223.19
2022-08-17T08:40:03.328Z,96223.13
2022-08-17T08:42:42.718Z,96226.91
2022-08-17T08:45:16.075Z,96230.50
2022-08-17T08:48:05.509Z,96226.84
2022-08-17T08:50:42.769Z,96231.97
2022-08-17T08:53:23.593Z,96231.00
2022-08-17T08:55:59.729Z,96230.75
2022-08-17T08:58:41.367Z,96237.09
2022-08-17T09:01:18.297Z,96230.06
2022-08-17T09:04:21.361Z,96220.19
2022-08-17T09:07:01.496Z,96225.88
2022-08-17T09:09:42.962Z,96235.47
2022-08-17T09:12:18.461Z,96227.19
2022-08-17T09:14:55.859Z,96214.28
2022-08-17T09:17:31.206Z,96206.78
2022-08-17T09:20:04.774Z,96210.69
2022-08-17T09:22:38.052Z,96208.19
2022-08-17T09:25:10.841Z,96212.22
2022-08-17T09:27:51.431Z,96210.88
2022-08-17T09:30:19.617Z,96210.13
2022-08-17T09:32:51.984Z,96206.34
2022-08-17T09:35:23.748Z,96202.16
2022-08-17T09:38:00.390Z,96209.44
2022-08-17T09:40:33.524Z,96216.91
2022-08-17T09:43:08.771Z,96223.28
2022-08-17T09:45:42.586Z,96228.19
2022-08-17T09:48:19.138Z,96230.88
2022-08-17T09:51:03.984Z,96221.69
2022-08-17T09:53:33.647Z,96224.22
2022-08-17T09:56:17.626Z,96224.22
2022-08-17T09:59:14.460Z,96223.44
2022-08-17T10:01:48.055Z,96231.81
2022-08-17T10:04:33.375Z,96237.03
2022-08-17T10:07:08.326Z,96240.66
2022-08-17T10:09:49.420Z,96251.22
2022-08-17T10:12:30.063Z,96236.84
2022-08-17T10:15:09.923Z,96244.56
2022-08-17T10:17:50.767Z,96233.97
2022-08-17T10:20:24.228Z,96238.84
2022-08-17T10:23:14.753Z,96229.84
2022-08-17T10:26:08.885Z,96232.63
2022-08-17T10:28:41.434Z,96235.97
2022-08-17T10:34:08.256Z,96233.38
2022-08-17T10:36:43.142Z,96234.91
2022-08-17T10:39:21.157Z,96245.03
2022-08-17T10:41:52.826Z,96241.84
2022-08-17T10:44:40.425Z,96237.56
2022-08-17T10:47:13.687Z,96244.03
2022-08-17T10:49:45.650Z,96244.53
2022-08-17T10:52:31.871Z,96248.34
2022-08-17T10:55:14.814Z,96254.88
2022-08-17T10:57:45.368Z,96262.03
2022-08-17T11:00:36.064Z,96250.84
2022-08-17T11:03:19.626Z,96265.88
2022-08-17T11:06:00.950Z,96266.38
2022-08-17T11:08:53.458Z,96250.31
2022-08-17T11:11:47.471Z,96259.72
2022-08-17T11:14:30.774Z,96257.22
2022-08-17T11:17:13.044Z,96259.13
2022-08-17T11:20:15.452Z,96258.78
2022-08-17T11:23:27.036Z,96257.06
2022-08-17T11:25:56.328Z,96258.00
2022-08-17T11:28:28.006Z,96255.00
2022-08-17T11:30:58.855Z,96263.56
2022-08-17T11:34:04.591Z,96249.63
2022-08-17T11:36:52.751Z,96255.16
2022-08-17T11:39:36.826Z,96254.53
2022-08-17T11:42:11.709Z,96265.31
2022-08-17T11:44:47.815Z,96266.25
2022-08-17T11:47:39.355Z,96265.00
2022-08-17T11:50:41.303Z,96269.72
2022-08-17T11:53:48.553Z,96280.34
2022-08-17T11:56:34.546Z,96281.59
2022-08-17T11:59:03.009Z,96287.94
2022-08-17T12:01:52.670Z,96288.13
2022-08-17T12:04:27.905Z,96291.44
2022-08-17T12:06:59.986Z,96298.88
2022-08-17T12:09:31.730Z,96303.78
2022-08-17T12:12:13.351Z,96300.13
2022-08-17T12:17:41.163Z,96315.78
2022-08-17T12:20:24.027Z,96328.25
2022-08-17T12:23:01.190Z,96327.16
2022-08-17T12:25:35.009Z,96331.56
2022-08-17T12:28:07.596Z,96335.81
2022-08-17T12:30:37.371Z,96338.66
2022-08-17T12:33:12.241Z,96344.31
2022-08-17T12:35:39.867Z,96341.41
2022-08-17T12:38:26.637Z,96344.38
2022-08-17T12:40:59.729Z,96340.88
2022-08-17T12:43:32.779Z,96345.91
2022-08-17T12:46:13.291Z,96329.91
2022-08-17T12:48:59.157Z,96326.88
2022-08-17T12:51:28.983Z,96327.00
2022-08-17T12:53:57.515Z,96310.72
2022-08-17T12:56:25.545Z,96298.69
2022-08-17T12:58:55.550Z,96310.84
2022-08-17T13:01:25.116Z,96311.94
2022-08-17T13:03:59.651Z,96307.69
2022-08-17T13:06:30.169Z,96314.94
2022-08-17T13:08:57.833Z,96295.63
2022-08-17T13:11:25.872Z,96290.88
2022-08-17T13:13:56.928Z,96288.97
2022-08-17T13:16:26.839Z,96294.03
2022-08-17T13:19:05.189Z,96286.50
2022-08-17T13:21:33.857Z,96286.75
2022-08-17T13:24:04.642Z,96286.75
2022-08-17T13:26:35.169Z,96277.91
2022-08-17T13:29:07.626Z,96283.28
2022-08-17T13:31:52.187Z,96272.56
2022-08-17T13:34:56.146Z,96282.72
2022-08-17T13:37:30.784Z,96273.56
2022-08-17T13:40:00.777Z,96255.72
2022-08-17T13:42:35.127Z,96234.72
2022-08-17T13:45:50.413Z,96235.19
2022-08-17T13:48:26.805Z,96245.75
2022-08-17T13:51:12.637Z,96249.25
2022-08-17T13:54:01.195Z,96241.66
2022-08-17T13:56:37.587Z,96227.16
2022-08-17T13:59:11.140Z,96231.09
2022-08-17T14:01:41.153Z,96229.19
2022-08-17T14:04:12.091Z,96238.69
2022-08-17T14:06:52.920Z,96234.72
2022-08-17T14:09:24.496Z,96224.28
2022-08-17T14:11:54.357Z,96220.03
2022-08-17T14:14:24.117Z,96214.47
2022-08-17T14:16:53.651Z,96205.72
2022-08-17T14:19:22.113Z,96205.09
2022-08-17T14:21:50.141Z,96198.56
2022-08-17T14:24:23.135Z,96199.19
2022-08-17T14:26:52.282Z,96200.13
2022-08-17T14:29:20.571Z,96203.91
2022-08-17T14:31:49.652Z,96199.63
2022-08-17T14:34:23.614Z,96190.31
2022-08-17T14:36:51.317Z,96182.88
2022-08-17T14:39:19.735Z,96183.50
2022-08-17T14:41:47.380Z,96186.47
2022-08-17T14:44:16.733Z,96194.03
2022-08-17T14:46:45.703Z,96185.50
2022-08-17T14:49:15.574Z,96185.03
2022-08-17T14:51:44.799Z,96187.72
2022-08-17T14:54:28.861Z,96192.09
2022-08-17T14:57:22.635Z,96187.34
2022-08-17T14:59:54.973Z,96189.06
2022-08-17T15:02:30.013Z,96185.41
2022-08-17T15:04:59.973Z,96189.78
2022-08-17T15:07:30.665Z,96197.38
2022-08-17T15:10:00.920Z,96194.19
2022-08-17T15:12:32.735Z,96210.09
2022-08-17T15:15:01.545Z,96197.31
2022-08-17T15:17:45.125Z,96195.22
2022-08-17T15:20:17.426Z,96193.94
2022-08-17T15:22:49.529Z,96190.00
2022-08-17T15:25:18.870Z,96193.28
2022-08-17T15:27:47.426Z,96190.91
2022-08-17T15:30:15.750Z,96200.03
2022-08-17T15:32:48.195Z,96196.88
2022-08-17T15:35:28.380Z,96193.41
2022-08-17T15:38:04.521Z,96195.28
2022-08-17T15:40:36.647Z,96194.19
2022-08-17T15:43:06.226Z,96191.84
2022-08-17T15:45:33.993Z,96189.94
2022-08-17T15:48:01.564Z,96183.47
2022-08-17T15:50:29.205Z,96177.00
2022-08-17T15:53:00.564Z,96192.63
2022-08-17T15:55:30.923Z,96181.41
2022-08-17T15:57:58.698Z,96177.59
2022-08-17T16:00:28.376Z,96170.69
2022-08-17T16:03:45.128Z,96173.34
2022-08-17T16:05:44.213Z,96166.41
2022-08-17T16:08:20.663Z,96163.72
2022-08-17T16:10:48.825Z,96164.34
2022-08-17T16:13:17.474Z,96164.34
2022-08-17T16:15:51.064Z,96161.66
2022-08-17T16:18:25.749Z,96157.84
2022-08-17T16:20:53.605Z,96156.16
2022-08-17T16:23:22.539Z,96152.88
2022-08-17T16:25:53.587Z,96151.19
2022-08-17T16:28:29.873Z,96136.66
2022-08-17T16:31:05.781Z,96139.81
2022-08-17T16:33:36.388Z,96136.84
2022-08-17T16:36:04.336Z,96137.00
2022-08-17T16:38:33.222Z,96138.59
2022-08-17T16:41:01.472Z,96131.63
2022-08-17T16:43:29.218Z,96125.19
2022-08-17T16:45:56.812Z,96124.69
2022-08-17T16:48:24.375Z,96123.59
2022-08-17T16:51:02.922Z,96126.28
2022-08-17T16:53:32.981Z,96126.59
2022-08-17T16:56:00.512Z,96126.13
2022-08-17T16:58:28.245Z,96122.16
2022-08-17T17:00:59.645Z,96126.72
2022-08-17T17:03:30.203Z,96129.72
2022-08-17T17:06:08.881Z,96133.47
2022-08-17T17:08:44.503Z,96128.41
2022-08-17T17:11:15.658Z,96128.75
2022-08-17T17:17:27.362Z,96125.56
2022-08-17T17:20:09.554Z,96120.50
2022-08-17T17:26:07.709Z,96117.63
2022-08-17T17:28:58.472Z,96110.72
2022-08-17T17:31:33.772Z,96112.13
2022-08-17T17:34:09.440Z,96117.78
2022-08-17T17:36:41.828Z,96109.25
2022-08-17T17:39:14.423Z,96113.81
2022-08-17T17:42:05.758Z,96107.97
2022-08-17T17:44:41.331Z,96110.94
2022-08-17T17:47:11.735Z,96103.22
2022-08-17T17:49:40.855Z,96091.69
2022-08-17T17:52:18.386Z,96098.47
2022-08-17T17:55:00.398Z,96098.31
2022-08-17T17:57:44.100Z,96097.31
2022-08-17T18:00:16.512Z,96090.69
2022-08-17T18:02:59.614Z,96089.41
2022-08-17T18:05:57.244Z,96080.84
2022-08-17T18:08:50.716Z,96079.88
2022-08-17T18:11:40.390Z,96072.72
2022-08-17T18:14:23.506Z,96071.47
2022-08-17T18:16:56.699Z,96075.84
2022-08-17T18:19:26.124Z,96085.28
2022-08-17T18:22:02.059Z,96088.59
2022-08-17T18:27:02.505Z,96106.34
2022-08-17T18:29:44.806Z,96109.31
2022-08-17T18:32:19.126Z,96107.75
2022-08-17T18:34:49.040Z,96119.06
2022-08-17T18:37:37.378Z,96114.81
2022-08-17T18:40:37.617Z,96110.03
2022-08-17T18:43:14.937Z,96124.84
2022-08-17T18:51:45.621Z,96133.59
2022-08-17T19:24:47.650Z,96125.59
2022-08-17T19:31:15.589Z,96114.16
2022-08-17T19:33:50.587Z,96103.25
2022-08-17T19:54:47.946Z,96108.34
2022-08-17T20:10:55.280Z,96140.28
2022-08-17T20:13:33.152Z,96133.97
2022-08-17T20:16:02.350Z,96137.47
2022-08-17T20:18:37.674Z,96138.94
2022-08-17T20:21:20.192Z,96143.34
2022-08-17T20:23:53.531Z,96152.00
2022-08-17T20:26:27.434Z,96157.47
2022-08-17T20:29:37.295Z,96161.13
2022-08-17T20:32:26.244Z,96160.47
2022-08-17T20:35:10.291Z,96166.41
2022-08-17T20:37:43.125Z,96168.34
2022-08-17T20:40:30.152Z,96172.97
2022-08-17T20:43:00.591Z,96164.13
2022-08-17T20:46:05.719Z,96167.91
2022-08-17T20:48:39.318Z,96158.88
2022-08-17T20:51:30.052Z,96169.31
2022-08-17T20:54:22.380Z,96170.47
2022-08-17T20:56:57.638Z,96176.13
2022-08-17T21:00:02.818Z,96175.66
2022-08-17T21:02:32.227Z,96172.25
2022-08-17T21:05:30.174Z,96171.50
2022-08-17T21:08:00.457Z,96177.16
2022-08-17T21:10:36.844Z,96178.78
2022-08-17T21:13:32.445Z,96181.44
2022-08-17T21:16:07.830Z,96178.25
2022-08-17T21:18:42.293Z,96179.34
2022-08-17T21:21:22.505Z,96182.28
2022-08-17T21:24:03.723Z,96185.22
2022-08-17T21:26:50.718Z,96176.16
2022-08-17T21:29:31.888Z,96179.03
2022-08-17T21:32:24.412Z,96187.31
2022-08-17T21:35:26.681Z,96180.09
2022-08-17T21:37:59.934Z,96184.09
2022-08-17T21:40:29.622Z,96191.03
2022-08-17T21:43:01.099Z,96192.09
2022-08-17T21:45:35.030Z,96200.88
2022-08-17T21:48:14.516Z,96197.97
2022-08-17T21:50:45.102Z,96234.25
2022-08-17T21:53:19.390Z,96266.00
2022-08-17T21:55:50.221Z,96272.44
2022-08-17T21:58:29.122Z,96270.84
2022-08-17T22:01:23.331Z,96279.34
2022-08-17T22:04:03.250Z,96283.34
2022-08-17T22:06:35.604Z,96296.66
2022-08-17T22:09:14.425Z,96319.00
2022-08-17T22:12:02.022Z,96333.41
2022-08-17T22:14:52.217Z,96330.75
2022-08-17T22:17:23.615Z,96341.94
2022-08-17T22:19:56.276Z,96349.19
2022-08-17T22:22:57.722Z,96367.56
2022-08-17T22:25:28.033Z,96378.81
2022-08-17T22:27:58.402Z,96392.19
2022-08-17T22:30:35.298Z,96396.97
2022-08-17T22:33:31.271Z,96402.31
2022-08-17T22:36:12.243Z,96416.16
2022-08-17T22:38:41.369Z,96409.56
2022-08-17T22:41:32.010Z,96418.63
2022-08-17T22:44:07.246Z,96416.25
2022-08-17T22:46:39.798Z,96425.59
2022-08-17T22:49:08.016Z,96430.94
2022-08-17T22:51:37.941Z,96434.97
2022-08-17T22:54:37.401Z,96439.25
2022-08-17T22:57:23.795Z,96443.50
2022-08-17T22:59:53.479Z,96456.00
2022-08-17T23:02:25.137Z,96460.03
2022-08-17T23:04:57.406Z,96466.41
2022-08-17T23:07:26.173Z,96466.94
2022-08-17T23:09:55.099Z,96458.97
2022-08-17T23:12:27.009Z,96473.06
2022-08-17T23:15:00.441Z,96468.25
2022-08-17T23:17:30.413Z,96475.75
2022-08-17T23:20:01.465Z,96469.09
2022-08-17T23:22:33.767Z,96472.00
2022-08-17T23:25:01.283Z,96467.75
2022-08-17T23:27:29.344Z,96470.13
2022-08-17T23:29:57.110Z,96465.88
2022-08-17T23:32:25.753Z,96468.00
2022-08-17T23:34:53.308Z,96468.53
2022-08-17T23:37:21.225Z,96456.03
2022-08-17T23:39:50.108Z,96464.84
2022-08-17T23:42:21.611Z,96461.34
2022-08-17T23:44:49.427Z,96459.75
2022-08-17T23:47:17.246Z,96461.34
2022-08-17T23:49:45.505Z,96463.22
2022-08-17T23:52:16.520Z,96464.28
2022-08-17T23:54:46.563Z,96465.34
2022-08-17T23:57:19.746Z,96460.56
